AirNav   Duncan Aviation - Near you to keep you flying
 
 384 users online  

44CL Balsdon Airport
Grimes, California, USA

GOING TO GRIMES?


FAA INFORMATION EFFECTIVE 03 NOVEMBER 2022

Location

FAA Identifier: 44CL
Lat/Long: 39-02-52.2750N 121-57-01.4000W
39-02.871250N 121-57.023333W
39.0478542,-121.9503889
(estimated)
Elevation: 35 ft. / 11 m (estimated)
From city: 3 miles WSW of GRIMES, CA
Time zone: UTC -8 (UTC -7 during Daylight Saving Time)
Zip code: 95912

Airport Operations

Airport use: Private use. Permission required prior to landing
Activation date: 04/2016
Control tower: no
ARTCC: OAKLAND CENTER
FSS: RANCHO MURIETA FLIGHT SERVICE STATION
Attendance: MON-FRI 0700-1600
Wind indicator: yes
Segmented circle: no

Airport Communications

WX ASOS at MYV (18 nm E): 118.475 (530-742-0695)

Nearby radio navigation aids

VOR radial/distance  VOR name  Freq  Var
ILAr093/3.8WILLIAMS VORTAC114.4018E
MYVr244/17.8MARYSVILLE VOR/DME110.8016E
MCCr295/34.2MC CLELLAN VOR/DME109.2017E

Airport Services

Runway Information

Runway 12/30

Dimensions: 2323 x 30 ft. / 708 x 9 m
Surface: asphalt
RUNWAY 12  RUNWAY 30
Latitude: 39-03.018000N39-02.724500N
Longitude: 121-57.180833W121-56.865833W
Elevation: 42.0 ft.33.0 ft.
Traffic pattern: leftleft
Touchdown point: yes, no lightsyes, no lights

Airport Ownership and Management from official FAA records

Ownership: Privately-owned
Owner: STRAIN BASIN LAND
P.O. BOX 807
ARBUCKLE, CA 95912
Phone 530-476-3286
Manager: DERICK STRAIN
P.O. BOX 807
ARBUCKLE, CA 95912
Phone 530-476-3286

Additional Remarks

FOR CD CTC OAKLAND ARTCC AT 510-745-3380.

Instrument Procedures

There are no published instrument procedures at 44CL.

Some nearby airports with instrument procedures:

O08 - Colusa County Airport (8 nm N)
KMYV - Yuba County Airport (18 nm E)
O41 - Watts-Woodland Airport (23 nm S)
KBAB - Beale Air Force Base (25 nm E)
KSMF - Sacramento International Airport (27 nm SE)
 
Loc | Ops | Rwys | IFR | FBO | Links
Com | Nav | Svcs | Stats | Notes

Sonoma Jet Center
 
Aerial photo
No photo
 
Airport distance calculator
Flying to Balsdon Airport? Find the distance to fly.

From to 44CL

Sunrise and sunset
Times for 28-Nov-2022
 Local
(UTC-8)
 Zulu
(UTC)
Morning civil twilight06:3714:37
Sunrise07:0615:06
Sunset16:4600:46
Evening civil twilight17:1501:15

Current date and time
Zulu (UTC)  28-Nov-2022 09:25:18
Local (UTC-8)  28-Nov-2022 01:25:18
 
METAR
KBAB 
25nm E 
280555Z AUTO 10005KT 10SM CLR 08/03 A2998 RMK AO2 SLP155 T00840028 10162 20065 $
KSMF 
27nm SE 
280853Z 11006KT 10SM CLR 08/02 A2997 RMK AO2 SLP144 T00780022 $
KDWA 
28nm S 
280855Z AUTO 00000KT 10SM CLR 04/00 A2998 RMK AO2
KLHM 
29nm E 
280855Z AUTO 08005KT 10SM CLR 04/02 A2995 RMK AO1
KOVE 
31nm NE 
280853Z AUTO 08003KT 10SM CLR 08/03 A2999 RMK AO2 SLP157 T00780028 58007
KMCC 
34nm SE 
280855Z AUTO 14005KT 10SM CLR 07/03 A2996 RMK AO2
TAF
KSMF 
27nm SE 
280521Z 2806/2906 VRB05KT P6SM SCT200 FM281000 VRB03KT 6SM BR SCT150 FM281800 20006KT P6SM SCT120 FM282300 28009KT P6SM BKN100
NOTAMs
Click for the latest NOTAMs
NOTAMs are issued by the DoD/FAA and will open in a separate window not controlled by AirNav.

 

 
 

Would you like to see your business listed on this page?

 If your business provides an interesting product or service to pilots, flight crews, aircraft, or users of the Balsdon Airport, you should consider listing it here.  To start the listing process, click on the button below
 
Add a business
 

Other Pages about Balsdon Airport

Update a link
 
Copyright © AirNav, LLC. All rights reserved. Privacy Policy  Contact